createdAt,value
2023-02-04T00:00:29.185Z,4.10
2023-02-04T00:02:57.499Z,4.10
2023-02-04T00:05:25.478Z,4.10
2023-02-04T00:07:53.494Z,4.10
2023-02-04T00:10:22.989Z,4.10
2023-02-04T00:12:50.899Z,4.00
2023-02-04T00:15:18.840Z,4.00
2023-02-04T00:17:46.920Z,4.00
2023-02-04T00:20:14.988Z,4.00
2023-02-04T00:22:42.979Z,4.10
2023-02-04T00:25:10.970Z,4.00
2023-02-04T00:27:40.632Z,4.10
2023-02-04T00:30:09.862Z,4.00
2023-02-04T00:32:37.948Z,4.00
2023-02-04T00:35:06.386Z,4.00
2023-02-04T00:37:34.332Z,3.90
2023-02-04T00:40:02.643Z,3.90
2023-02-04T00:42:30.567Z,3.90
2023-02-04T00:44:59.959Z,3.90
2023-02-04T00:47:27.917Z,3.90
2023-02-04T00:49:55.819Z,4.00
2023-02-04T00:52:23.776Z,3.90
2023-02-04T00:54:51.860Z,3.90
2023-02-04T00:57:20.129Z,4.00
2023-02-04T00:59:48.184Z,3.90
2023-02-04T01:02:18.537Z,4.00
2023-02-04T01:04:46.657Z,3.90
2023-02-04T01:07:14.695Z,3.90
2023-02-04T01:09:42.742Z,3.90
2023-02-04T01:12:10.840Z,4.00
2023-02-04T01:14:38.766Z,4.00
2023-02-04T01:17:06.767Z,4.00
2023-02-04T01:19:36.014Z,4.10
2023-02-04T01:22:03.954Z,4.10
2023-02-04T01:24:31.891Z,4.10
2023-02-04T01:26:59.864Z,4.10
2023-02-04T01:29:27.767Z,4.00
2023-02-04T01:31:55.773Z,4.10
2023-02-04T01:34:25.951Z,4.10
2023-02-04T01:36:55.240Z,4.10
2023-02-04T01:39:23.201Z,4.10
2023-02-04T01:41:51.332Z,4.10
2023-02-04T01:44:19.263Z,4.10
2023-02-04T01:46:47.261Z,4.20
2023-02-04T01:49:15.377Z,4.10
2023-02-04T01:51:43.358Z,4.10
2023-02-04T01:54:13.404Z,4.10
2023-02-04T01:56:44.027Z,4.10
2023-02-04T01:59:13.665Z,4.10
2023-02-04T02:01:43.122Z,4.10
2023-02-04T02:04:11.895Z,4.10
2023-02-04T02:06:43.273Z,4.10
2023-02-04T02:09:12.653Z,4.10
2023-02-04T02:11:40.798Z,4.10
2023-02-04T02:14:09.087Z,4.10
2023-02-04T02:16:37.158Z,4.10
2023-02-04T02:19:08.571Z,4.10
2023-02-04T02:21:40.464Z,4.10
2023-02-04T02:24:28.470Z,4.20
2023-02-04T02:26:59.283Z,4.10
2023-02-04T02:29:28.239Z,4.10
2023-02-04T02:31:58.338Z,4.10
2023-02-04T02:34:28.107Z,4.10
2023-02-04T02:36:56.551Z,4.00
2023-02-04T02:39:25.046Z,4.10
2023-02-04T02:41:54.947Z,4.00
2023-02-04T02:44:23.257Z,4.00
2023-02-04T02:46:51.286Z,4.00
2023-02-04T02:49:20.884Z,4.00
2023-02-04T02:51:49.647Z,4.00
2023-02-04T02:54:22.939Z,4.00
2023-02-04T02:56:51.504Z,3.90
2023-02-04T02:59:21.377Z,4.00
2023-02-04T03:01:52.811Z,4.00
2023-02-04T03:04:22.636Z,4.00
2023-02-04T03:06:51.554Z,4.00
2023-02-04T03:09:20.105Z,4.00
2023-02-04T03:11:48.354Z,4.00
2023-02-04T03:14:16.593Z,4.00
2023-02-04T03:16:46.861Z,4.00
2023-02-04T03:19:15.151Z,4.00
2023-02-04T03:21:43.568Z,4.10
2023-02-04T03:24:11.674Z,4.10
2023-02-04T03:26:39.829Z,4.10
2023-02-04T03:29:08.755Z,4.10
2023-02-04T03:31:37.779Z,4.10
2023-02-04T03:34:07.316Z,4.10
2023-02-04T03:36:36.463Z,4.10
2023-02-04T03:39:04.787Z,4.20
2023-02-04T03:41:32.801Z,4.20
2023-02-04T03:44:00.742Z,4.20
2023-02-04T03:46:28.915Z,4.10
2023-02-04T03:48:57.119Z,4.00
2023-02-04T03:51:26.457Z,4.00
2023-02-04T03:53:54.496Z,3.80
2023-02-04T03:56:22.419Z,3.80
2023-02-04T03:58:50.819Z,3.90
2023-02-04T04:01:19.068Z,3.90
2023-02-04T04:03:47.040Z,3.90
2023-02-04T04:06:14.998Z,3.90
2023-02-04T04:08:44.357Z,3.90
2023-02-04T04:11:12.330Z,3.90
2023-02-04T04:13:40.505Z,3.90
2023-02-04T04:16:09.080Z,3.90
2023-02-04T04:18:37.293Z,3.90
2023-02-04T04:21:05.458Z,3.90
2023-02-04T04:23:33.815Z,4.00
2023-02-04T04:26:03.292Z,3.90
2023-02-04T04:28:31.412Z,3.90
2023-02-04T04:30:59.353Z,4.00
2023-02-04T04:33:27.343Z,3.90
2023-02-04T04:35:55.463Z,3.80
2023-02-04T04:38:23.883Z,3.90
2023-02-04T04:40:51.910Z,3.90
2023-02-04T04:43:21.234Z,3.90
2023-02-04T04:45:49.153Z,3.90
2023-02-04T04:48:17.424Z,3.90
2023-02-04T04:50:45.389Z,3.90
2023-02-04T04:53:13.377Z,3.90
2023-02-04T04:55:41.495Z,3.90
2023-02-04T04:58:09.811Z,3.90
2023-02-04T05:00:39.273Z,3.90
2023-02-04T05:03:07.676Z,3.90
2023-02-04T05:05:39.901Z,3.90
2023-02-04T05:08:10.794Z,4.00
2023-02-04T05:10:38.790Z,3.90
2023-02-04T05:13:06.783Z,3.90
2023-02-04T05:15:34.872Z,3.80
2023-02-04T05:18:04.438Z,3.80
2023-02-04T05:20:32.770Z,3.80
2023-02-04T05:23:02.259Z,3.80
2023-02-04T05:25:31.532Z,3.80
2023-02-04T05:27:59.642Z,3.80
2023-02-04T05:30:27.664Z,3.80
2023-02-04T05:32:55.708Z,3.80
2023-02-04T05:35:25.140Z,3.80
2023-02-04T05:37:53.074Z,3.90
2023-02-04T05:40:21.328Z,3.90
2023-02-04T05:42:49.325Z,3.90
2023-02-04T05:45:18.897Z,3.90
2023-02-04T05:47:46.924Z,3.90
2023-02-04T05:50:15.117Z,3.90
2023-02-04T05:52:44.526Z,3.90
2023-02-04T05:55:13.365Z,3.90
2023-02-04T05:57:41.554Z,3.90
2023-02-04T06:00:12.364Z,3.90
2023-02-04T06:02:40.412Z,3.90
2023-02-04T06:05:08.778Z,3.90
2023-02-04T06:07:36.724Z,3.90
2023-02-04T06:10:06.713Z,3.90
2023-02-04T06:12:34.751Z,3.90
2023-02-04T06:15:02.778Z,3.90
2023-02-04T06:17:30.745Z,3.90
2023-02-04T06:19:58.725Z,3.90
2023-02-04T06:22:26.845Z,3.90
2023-02-04T06:24:54.916Z,3.80
2023-02-04T06:27:24.406Z,3.90
2023-02-04T06:29:52.990Z,3.90
2023-02-04T06:32:21.454Z,3.90
2023-02-04T06:34:49.453Z,4.00
2023-02-04T06:37:18.039Z,4.00
2023-02-04T06:39:46.008Z,4.00
2023-02-04T06:42:13.951Z,4.00
2023-02-04T06:44:43.284Z,3.90
2023-02-04T06:47:11.261Z,3.90
2023-02-04T06:49:39.343Z,3.90
2023-02-04T06:52:07.300Z,4.00
2023-02-04T06:54:35.509Z,4.00
2023-02-04T06:57:06.706Z,4.10
2023-02-04T06:59:35.038Z,4.10
2023-02-04T07:02:05.184Z,4.10
2023-02-04T07:04:33.212Z,4.20
2023-02-04T07:07:01.214Z,4.20
2023-02-04T07:09:29.128Z,4.20
2023-02-04T07:11:57.078Z,4.20
2023-02-04T07:14:25.119Z,4.20
2023-02-04T07:16:53.043Z,4.20
2023-02-04T07:19:22.292Z,4.30
2023-02-04T07:21:54.259Z,4.30
2023-02-04T07:24:22.207Z,4.30
2023-02-04T07:26:50.259Z,4.30
2023-02-04T07:29:25.236Z,4.30
2023-02-04T07:31:53.778Z,4.30
2023-02-04T07:34:23.198Z,4.40
2023-02-04T07:36:51.275Z,4.40
2023-02-04T07:39:19.253Z,4.40
2023-02-04T07:41:47.166Z,4.50
2023-02-04T07:44:15.160Z,4.40
2023-02-04T07:46:43.486Z,4.40
2023-02-04T07:49:11.534Z,4.50
2023-02-04T07:51:40.928Z,4.40
2023-02-04T07:54:08.924Z,4.40
2023-02-04T07:56:37.027Z,4.40
2023-02-04T07:59:04.985Z,4.50
2023-02-04T08:01:33.040Z,4.50
2023-02-04T08:04:01.010Z,4.50
2023-02-04T08:06:29.182Z,4.50
2023-02-04T08:08:58.455Z,4.50
2023-02-04T08:11:27.021Z,4.60
2023-02-04T08:13:54.989Z,4.60
2023-02-04T08:16:23.004Z,4.70
2023-02-04T08:18:51.006Z,4.70
2023-02-04T08:21:19.590Z,4.70
2023-02-04T08:23:47.576Z,4.80
2023-02-04T08:26:16.940Z,4.80
2023-02-04T08:28:44.953Z,4.80
2023-02-04T08:31:12.929Z,4.90
2023-02-04T08:33:41.126Z,5.00
2023-02-04T08:36:09.395Z,5.00
2023-02-04T08:38:37.371Z,5.00
2023-02-04T08:41:05.742Z,5.10
2023-02-04T08:43:35.108Z,5.10
2023-02-04T08:46:03.155Z,5.10
2023-02-04T08:48:31.052Z,5.10
2023-02-04T08:50:59.093Z,5.10
2023-02-04T08:53:27.040Z,5.10
2023-02-04T08:55:55.013Z,5.20
2023-02-04T08:58:22.918Z,5.10
2023-02-04T09:00:52.253Z,4.90
2023-02-04T09:03:20.271Z,4.90
2023-02-04T09:05:48.626Z,4.90
2023-02-04T09:08:16.798Z,4.90
2023-02-04T09:10:44.712Z,4.90
2023-02-04T09:13:14.339Z,5.00
2023-02-04T09:15:42.333Z,5.00
2023-02-04T09:18:16.983Z,5.00
2023-02-04T09:20:45.376Z,5.00
2023-02-04T09:23:13.931Z,5.00
2023-02-04T09:25:42.919Z,5.10
2023-02-04T09:28:12.492Z,5.10
2023-02-04T09:30:41.000Z,5.20
2023-02-04T09:33:09.688Z,5.10
2023-02-04T09:35:39.479Z,5.00
2023-02-04T09:38:07.640Z,5.00
2023-02-04T09:40:38.097Z,5.00
2023-02-04T09:43:07.344Z,5.00
2023-02-04T09:45:36.460Z,5.00
2023-02-04T09:48:07.152Z,5.00
2023-02-04T09:50:36.131Z,5.00
2023-02-04T09:53:08.436Z,4.90
2023-02-04T09:55:38.497Z,4.90
2023-02-04T09:58:12.642Z,4.90
2023-02-04T10:00:40.593Z,4.80
2023-02-04T10:03:16.106Z,4.80
2023-02-04T10:05:45.437Z,4.80
2023-02-04T10:08:17.988Z,4.80
2023-02-04T10:10:46.478Z,4.80
2023-02-04T10:13:19.107Z,4.90
2023-02-04T10:15:47.056Z,5.00
2023-02-04T10:18:23.395Z,5.10
2023-02-04T10:20:51.394Z,5.10
2023-02-04T10:23:21.607Z,5.20
2023-02-04T10:25:49.646Z,5.30
2023-02-04T10:28:18.402Z,5.30
2023-02-04T10:31:05.401Z,5.20
2023-02-04T10:33:36.992Z,5.30
2023-02-04T10:36:07.029Z,5.30
2023-02-04T10:38:36.412Z,5.20
2023-02-04T10:41:06.651Z,5.30
2023-02-04T10:43:34.580Z,5.30
2023-02-04T10:46:04.116Z,5.20
2023-02-04T10:48:41.190Z,5.10
2023-02-04T10:51:14.425Z,5.00
2023-02-04T10:54:01.313Z,5.00
2023-02-04T10:56:29.442Z,5.00
2023-02-04T10:58:57.490Z,5.00
2023-02-04T11:01:29.831Z,4.90
2023-02-04T11:03:58.073Z,4.90
2023-02-04T11:06:26.555Z,4.90
2023-02-04T11:08:56.050Z,4.90
2023-02-04T11:11:26.851Z,4.80
2023-02-04T11:14:04.181Z,4.80
2023-02-04T11:16:35.352Z,4.90
2023-02-04T11:19:05.762Z,5.00
2023-02-04T11:21:44.590Z,5.00
2023-02-04T11:24:33.742Z,5.00
2023-02-04T11:27:09.548Z,5.10
2023-02-04T11:29:39.127Z,5.10
2023-02-04T11:32:27.416Z,5.10
2023-02-04T11:34:57.331Z,5.20
2023-02-04T11:37:40.111Z,5.10
2023-02-04T11:40:28.857Z,5.10
2023-02-04T11:43:03.882Z,5.10
2023-02-04T11:45:34.946Z,5.20
2023-02-04T11:48:05.303Z,5.30
2023-02-04T11:50:35.523Z,5.30
2023-02-04T11:53:03.795Z,5.20
2023-02-04T11:55:35.928Z,5.10
2023-02-04T11:58:07.423Z,5.20
2023-02-04T12:00:36.343Z,5.20
2023-02-04T12:03:08.727Z,5.20
2023-02-04T12:05:40.756Z,5.10
2023-02-04T12:08:14.054Z,5.20
2023-02-04T12:10:50.142Z,5.30
2023-02-04T12:13:25.173Z,5.40
2023-02-04T12:16:00.310Z,5.40
2023-02-04T12:18:28.792Z,5.40
2023-02-04T12:20:57.329Z,5.40
2023-02-04T12:23:25.987Z,5.40
2023-02-04T12:25:54.536Z,5.40
2023-02-04T12:28:24.275Z,5.40
2023-02-04T12:30:52.411Z,5.40
2023-02-04T12:33:20.584Z,5.40
2023-02-04T12:35:48.553Z,5.40
2023-02-04T12:38:18.372Z,5.40
2023-02-04T12:40:47.446Z,5.40
2023-02-04T12:43:15.597Z,5.40
2023-02-04T12:45:46.452Z,5.50
2023-02-04T12:48:19.458Z,5.40
2023-02-04T12:51:06.835Z,5.10
2023-02-04T12:53:50.096Z,5.00
2023-02-04T12:56:46.211Z,4.80
2023-02-04T12:59:26.621Z,4.60
2023-02-04T13:02:14.654Z,4.50
2023-02-04T13:08:57.979Z,4.50
2023-02-04T13:12:13.721Z,4.60
2023-02-04T13:15:01.530Z,4.70
2023-02-04T13:17:37.381Z,4.70
2023-02-04T13:24:16.935Z,4.70
2023-02-04T13:27:17.236Z,4.80
2023-02-04T13:30:53.194Z,4.80
2023-02-04T13:34:27.306Z,4.80
2023-02-04T13:38:07.407Z,4.90
2023-02-04T13:41:10.350Z,4.80
2023-02-04T13:44:06.194Z,4.70
2023-02-04T13:46:54.171Z,4.70
2023-02-04T13:49:45.254Z,4.70
2023-02-04T13:56:05.622Z,4.70
2023-02-04T13:59:00.185Z,4.70
2023-02-04T14:02:24.516Z,4.70
2023-02-04T14:06:17.240Z,4.70
2023-02-04T14:09:48.420Z,4.80
2023-02-04T14:12:19.338Z,4.80
2023-02-04T14:14:47.410Z,4.90
2023-02-04T14:17:16.576Z,4.80
2023-02-04T14:19:44.603Z,4.80
2023-02-04T14:22:13.987Z,4.70
2023-02-04T14:24:42.700Z,4.80
2023-02-04T14:27:11.777Z,4.60
2023-02-04T14:29:39.683Z,4.70
2023-02-04T14:32:08.365Z,4.70
2023-02-04T14:34:36.355Z,4.50
2023-02-04T14:37:04.294Z,4.50
2023-02-04T14:39:33.687Z,4.50
2023-02-04T14:42:04.386Z,4.50
2023-02-04T14:44:32.472Z,4.50
2023-02-04T14:47:00.559Z,4.50
2023-02-04T14:49:28.524Z,4.40
2023-02-04T14:51:57.023Z,4.40
2023-02-04T14:54:25.104Z,4.40
2023-02-04T14:56:54.511Z,4.30
2023-02-04T14:59:22.644Z,4.30
2023-02-04T15:01:50.503Z,4.30
2023-02-04T15:04:19.061Z,4.30
2023-02-04T15:06:47.144Z,4.30
2023-02-04T15:09:15.111Z,4.20
2023-02-04T15:11:43.147Z,4.20
2023-02-04T15:14:12.461Z,4.20
2023-02-04T15:16:41.985Z,4.20
2023-02-04T15:19:09.989Z,4.10
2023-02-04T15:21:37.965Z,4.00
2023-02-04T15:24:05.989Z,4.00
2023-02-04T15:26:33.928Z,4.00
2023-02-04T15:29:01.884Z,3.90
2023-02-04T15:31:31.366Z,3.90
2023-02-04T15:33:59.907Z,3.90
2023-02-04T15:36:28.056Z,3.90
2023-02-04T15:38:56.179Z,3.90
2023-02-04T15:41:24.094Z,3.80
2023-02-04T15:43:52.033Z,3.80
2023-02-04T15:46:20.175Z,3.80
2023-02-04T15:48:49.915Z,3.80
2023-02-04T15:51:18.022Z,3.80
2023-02-04T15:53:45.910Z,3.80
2023-02-04T15:56:13.895Z,3.70
2023-02-04T15:58:41.944Z,3.70
2023-02-04T16:01:10.104Z,3.70
2023-02-04T16:03:38.162Z,3.70
2023-02-04T16:06:07.984Z,3.60
2023-02-04T16:08:35.961Z,3.60
2023-02-04T16:11:05.962Z,3.60
2023-02-04T16:13:34.302Z,3.60
2023-02-04T16:16:02.400Z,3.50
2023-02-04T16:18:30.806Z,3.50
2023-02-04T16:20:58.880Z,3.50
2023-02-04T16:23:28.338Z,3.50
2023-02-04T16:25:56.397Z,3.50
2023-02-04T16:28:25.401Z,3.50
2023-02-04T16:30:53.591Z,3.50
2023-02-04T16:33:21.941Z,3.50
2023-02-04T16:36:04.259Z,3.50
2023-02-04T16:38:33.803Z,3.50
2023-02-04T16:41:01.837Z,3.50
2023-02-04T16:43:29.946Z,3.50
2023-02-04T16:45:58.172Z,3.50
2023-02-04T16:48:26.775Z,3.60
2023-02-04T16:50:54.867Z,3.60
2023-02-04T16:53:23.224Z,3.70
2023-02-04T16:55:52.776Z,3.80
2023-02-04T16:58:20.971Z,3.80
2023-02-04T17:00:50.226Z,3.90
2023-02-04T17:03:18.341Z,4.00
2023-02-04T17:05:46.541Z,4.10
2023-02-04T17:08:17.227Z,4.20
2023-02-04T17:11:02.664Z,4.30
2023-02-04T17:13:32.145Z,4.30
2023-02-04T17:16:01.300Z,4.40
2023-02-04T17:18:51.540Z,4.50
2023-02-04T17:21:19.793Z,4.50
2023-02-04T17:23:47.856Z,4.50
2023-02-04T17:26:16.108Z,4.40
2023-02-04T17:28:45.911Z,4.30
2023-02-04T17:31:14.318Z,4.30
2023-02-04T17:33:42.588Z,4.20
2023-02-04T17:36:13.630Z,4.10
2023-02-04T17:38:41.797Z,4.00
2023-02-04T17:41:10.015Z,4.10
2023-02-04T17:43:38.277Z,4.10
2023-02-04T17:46:08.015Z,4.00
2023-02-04T17:48:36.239Z,4.00
2023-02-04T17:51:04.276Z,4.00
2023-02-04T17:53:33.238Z,3.90
2023-02-04T17:56:02.640Z,3.80
2023-02-04T17:58:32.877Z,3.70
2023-02-04T18:01:01.188Z,3.60
2023-02-04T18:03:30.980Z,3.50
2023-02-04T18:05:59.844Z,3.50
2023-02-04T18:08:31.858Z,3.50
2023-02-04T18:11:00.121Z,3.50
2023-02-04T18:13:32.815Z,3.50
2023-02-04T18:16:03.866Z,3.50
2023-02-04T18:18:36.950Z,3.40
2023-02-04T18:21:21.261Z,3.40
2023-02-04T18:23:53.991Z,3.40
2023-02-04T18:26:25.666Z,3.50
2023-02-04T18:28:53.978Z,3.50
2023-02-04T18:31:29.989Z,3.60
2023-02-04T18:34:00.248Z,3.60
2023-02-04T18:36:28.472Z,3.70
2023-02-04T18:38:56.781Z,3.70
2023-02-04T18:41:34.149Z,3.70
2023-02-04T18:44:16.705Z,3.70
2023-02-04T18:46:48.457Z,3.70
2023-02-04T18:49:27.491Z,3.80
2023-02-04T18:51:57.889Z,3.90
2023-02-04T18:54:34.993Z,4.00
2023-02-04T18:57:29.310Z,4.00
2023-02-04T19:00:27.587Z,4.10
2023-02-04T19:02:59.969Z,4.10
2023-02-04T19:05:33.988Z,4.10
2023-02-04T19:08:26.444Z,4.10
2023-02-04T19:10:56.988Z,4.10
2023-02-04T19:13:27.404Z,4.00
2023-02-04T19:16:01.916Z,4.10
2023-02-04T19:18:38.344Z,4.10
2023-02-04T19:21:25.799Z,4.10
2023-02-04T19:23:59.938Z,4.10
2023-02-04T19:26:35.413Z,4.00
2023-02-04T19:29:38.735Z,3.90
2023-02-04T19:32:24.447Z,3.70
2023-02-04T19:34:54.198Z,3.60
2023-02-04T19:37:27.538Z,3.50
2023-02-04T19:39:56.600Z,3.40
2023-02-04T19:42:29.750Z,3.30
2023-02-04T19:44:59.449Z,3.10
2023-02-04T19:47:30.104Z,3.00
2023-02-04T19:50:19.835Z,2.90
2023-02-04T19:52:52.109Z,2.80
2023-02-04T19:55:29.878Z,2.70
2023-02-04T19:58:00.897Z,2.60
2023-02-04T20:00:44.779Z,2.60
2023-02-04T20:03:25.669Z,2.60
2023-02-04T20:05:53.825Z,2.70
2023-02-04T20:08:43.961Z,2.70
2023-02-04T20:11:35.467Z,2.80
2023-02-04T20:14:23.007Z,2.90
2023-02-04T20:16:53.699Z,3.00
2023-02-04T20:19:25.239Z,3.10
2023-02-04T20:22:34.293Z,3.20
2023-02-04T20:25:35.210Z,3.30
2023-02-04T20:28:21.786Z,3.40
2023-02-04T20:30:51.364Z,3.40
2023-02-04T20:33:35.753Z,3.40
2023-02-04T20:36:25.079Z,3.50
2023-02-04T20:39:03.166Z,3.50
2023-02-04T20:41:37.817Z,3.50
2023-02-04T20:44:15.900Z,3.50
2023-02-04T20:46:44.466Z,3.50
2023-02-04T20:49:23.142Z,3.50
2023-02-04T20:51:51.968Z,3.40
2023-02-04T20:54:20.057Z,3.40
2023-02-04T20:56:49.577Z,3.40
2023-02-04T20:59:33.688Z,3.30
2023-02-04T21:02:04.638Z,3.30
2023-02-04T21:04:36.940Z,3.40
2023-02-04T21:07:14.851Z,3.50
2023-02-04T21:09:42.876Z,3.50
2023-02-04T21:12:12.635Z,3.60
2023-02-04T21:14:40.922Z,3.60
2023-02-04T21:17:09.254Z,3.60
2023-02-04T21:19:37.363Z,3.60
2023-02-04T21:22:05.452Z,3.60
2023-02-04T21:24:33.847Z,3.40
2023-02-04T21:27:02.054Z,3.40
2023-02-04T21:29:31.425Z,3.40
2023-02-04T21:31:59.512Z,3.40
2023-02-04T21:34:27.543Z,3.50
2023-02-04T21:36:55.657Z,3.50
2023-02-04T21:39:24.434Z,3.50
2023-02-04T21:42:10.131Z,3.60
2023-02-04T21:44:40.356Z,3.70
2023-02-04T21:47:08.468Z,3.80
2023-02-04T21:49:39.820Z,3.80
2023-02-04T21:52:09.426Z,3.80
2023-02-04T21:54:37.613Z,3.80
2023-02-04T21:57:05.610Z,3.80
2023-02-04T21:59:33.744Z,3.80
2023-02-04T22:02:04.765Z,3.90
2023-02-04T22:04:32.804Z,3.90
2023-02-04T22:07:01.088Z,3.90
2023-02-04T22:09:29.116Z,3.90
2023-02-04T22:11:57.359Z,3.90
2023-02-04T22:14:25.372Z,3.90
2023-02-04T22:16:53.469Z,3.70
2023-02-04T22:19:22.892Z,3.60
2023-02-04T22:21:51.083Z,3.50
2023-02-04T22:24:19.278Z,3.60
2023-02-04T22:26:47.407Z,3.50
2023-02-04T22:29:19.372Z,3.40
2023-02-04T22:31:47.518Z,3.40
2023-02-04T22:34:15.652Z,3.40
2023-02-04T22:36:45.079Z,3.40
2023-02-04T22:39:13.051Z,3.50
2023-02-04T22:41:41.039Z,3.50
2023-02-04T22:44:09.144Z,3.50
2023-02-04T22:46:37.200Z,3.50
2023-02-04T22:49:06.022Z,3.50
2023-02-04T22:51:34.595Z,3.60
2023-02-04T22:54:03.928Z,3.60
2023-02-04T22:56:32.180Z,3.50
2023-02-04T22:59:00.147Z,3.50
2023-02-04T23:01:28.216Z,3.50
2023-02-04T23:03:56.300Z,3.50
2023-02-04T23:06:24.578Z,3.50
2023-02-04T23:08:53.399Z,3.50
2023-02-04T23:11:23.270Z,3.50
2023-02-04T23:13:51.416Z,3.50
2023-02-04T23:16:20.206Z,3.40
2023-02-04T23:18:48.307Z,3.20
2023-02-04T23:21:16.406Z,3.10
2023-02-04T23:23:44.666Z,3.00
2023-02-04T23:26:13.135Z,3.10
2023-02-04T23:28:43.159Z,3.20
2023-02-04T23:31:11.899Z,3.20
2023-02-04T23:33:40.023Z,3.30
2023-02-04T23:36:09.060Z,3.30
2023-02-04T23:38:37.061Z,3.30
2023-02-04T23:41:05.275Z,3.30
2023-02-04T23:43:33.256Z,3.30
2023-02-04T23:46:02.733Z,3.30
2023-02-04T23:48:30.773Z,3.20
2023-02-04T23:50:59.443Z,3.20
2023-02-04T23:53:27.426Z,3.10
2023-02-04T23:55:55.395Z,3.10
2023-02-04T23:58:23.405Z,3.00
